sensor_id;sensor_type;location;lat;lon;timestamp;pressure;altitude;pressure_sealevel;temperature;humidity
41690;BME280;27372;42.658;23.256;2023-05-29T00:00:50;93596.47;;;12.51;100.00
41690;BME280;27372;42.658;23.256;2023-05-29T00:03:16;93597.38;;;12.67;100.00
41690;BME280;27372;42.658;23.256;2023-05-29T00:05:45;93593.84;;;12.51;100.00
41690;BME280;27372;42.658;23.256;2023-05-29T00:08:11;93597.72;;;12.43;100.00
41690;BME280;27372;42.658;23.256;2023-05-29T00:10:36;93605.88;;;12.41;100.00
41690;BME280;27372;42.658;23.256;2023-05-29T00:13:05;93601.53;;;12.57;100.00
41690;BME280;27372;42.658;23.256;2023-05-29T00:15:31;93593.50;;;12.74;100.00
41690;BME280;27372;42.658;23.256;2023-05-29T00:17:57;93603.66;;;13.03;100.00
41690;BME280;27372;42.658;23.256;2023-05-29T00:20:26;93604.91;;;12.91;100.00
41690;BME280;27372;42.658;23.256;2023-05-29T00:22:51;93598.63;;;12.59;100.00
41690;BME280;27372;42.658;23.256;2023-05-29T00:25:17;93597.44;;;12.77;100.00
41690;BME280;27372;42.658;23.256;2023-05-29T00:27:46;93605.91;;;12.79;100.00
41690;BME280;27372;42.658;23.256;2023-05-29T00:30:11;93606.81;;;12.63;100.00
41690;BME280;27372;42.658;23.256;2023-05-29T00:32:39;93611.38;;;12.72;100.00
41690;BME280;27372;42.658;23.256;2023-05-29T00:35:06;93601.81;;;12.99;100.00
41690;BME280;27372;42.658;23.256;2023-05-29T00:37:35;93601.59;;;13.11;100.00
41690;BME280;27372;42.658;23.256;2023-05-29T00:40:00;93601.09;;;13.14;100.00
41690;BME280;27372;42.658;23.256;2023-05-29T00:42:25;93591.66;;;13.28;100.00
41690;BME280;27372;42.658;23.256;2023-05-29T00:44:51;93603.78;;;13.24;100.00
41690;BME280;27372;42.658;23.256;2023-05-29T00:47:19;93601.69;;;13.31;100.00
41690;BME280;27372;42.658;23.256;2023-05-29T00:49:48;93598.19;;;13.15;100.00
41690;BME280;27372;42.658;23.256;2023-05-29T00:52:17;93592.38;;;13.13;100.00
41690;BME280;27372;42.658;23.256;2023-05-29T00:54:46;93605.16;;;13.37;100.00
41690;BME280;27372;42.658;23.256;2023-05-29T00:57:13;93588.88;;;13.56;100.00
41690;BME280;27372;42.658;23.256;2023-05-29T00:59:40;93587.25;;;13.44;100.00
41690;BME280;27372;42.658;23.256;2023-05-29T01:02:10;93591.56;;;13.66;100.00
41690;BME280;27372;42.658;23.256;2023-05-29T01:04:36;93579.47;;;13.86;100.00
41690;BME280;27372;42.658;23.256;2023-05-29T01:07:05;93582.13;;;13.80;100.00
41690;BME280;27372;42.658;23.256;2023-05-29T01:09:32;93578.34;;;13.56;100.00
41690;BME280;27372;42.658;23.256;2023-05-29T01:15:12;93585.22;;;13.62;100.00
41690;BME280;27372;42.658;23.256;2023-05-29T01:28:43;93601.97;;;13.35;100.00
41690;BME280;27372;42.658;23.256;2023-05-29T01:31:13;93593.28;;;13.34;100.00
41690;BME280;27372;42.658;23.256;2023-05-29T01:33:40;93593.34;;;13.45;100.00
41690;BME280;27372;42.658;23.256;2023-05-29T01:36:08;93606.31;;;13.57;100.00
41690;BME280;27372;42.658;23.256;2023-05-29T01:38:35;93595.72;;;13.41;100.00
41690;BME280;27372;42.658;23.256;2023-05-29T01:41:04;93594.91;;;13.41;100.00
41690;BME280;27372;42.658;23.256;2023-05-29T01:43:30;93597.31;;;13.47;100.00
41690;BME280;27372;42.658;23.256;2023-05-29T01:45:59;93597.22;;;13.32;100.00
41690;BME280;27372;42.658;23.256;2023-05-29T01:48:32;93596.75;;;13.40;100.00
41690;BME280;27372;42.658;23.256;2023-05-29T01:51:04;93590.59;;;13.29;100.00
41690;BME280;27372;42.658;23.256;2023-05-29T01:53:29;93601.69;;;13.31;100.00
41690;BME280;27372;42.658;23.256;2023-05-29T01:55:55;93594.28;;;13.28;100.00
41690;BME280;27372;42.658;23.256;2023-05-29T01:58:24;93598.50;;;13.29;100.00
41690;BME280;27372;42.658;23.256;2023-05-29T02:00:50;93587.19;;;13.29;100.00
41690;BME280;27372;42.658;23.256;2023-05-29T02:03:18;93589.38;;;13.42;100.00
41690;BME280;27372;42.658;23.256;2023-05-29T02:05:46;93588.50;;;13.26;100.00
41690;BME280;27372;42.658;23.256;2023-05-29T02:08:12;93581.91;;;13.29;100.00
41690;BME280;27372;42.658;23.256;2023-05-29T02:10:37;93601.25;;;13.50;100.00
41690;BME280;27372;42.658;23.256;2023-05-29T02:13:03;93591.81;;;13.59;100.00
41690;BME280;27372;42.658;23.256;2023-05-29T02:15:29;93576.75;;;13.55;100.00
41690;BME280;27372;42.658;23.256;2023-05-29T02:17:54;93586.28;;;13.61;100.00
41690;BME280;27372;42.658;23.256;2023-05-29T02:20:20;93580.06;;;13.29;100.00
41690;BME280;27372;42.658;23.256;2023-05-29T02:22:45;93576.81;;;13.07;100.00
41690;BME280;27372;42.658;23.256;2023-05-29T02:25:11;93569.34;;;12.93;100.00
41690;BME280;27372;42.658;23.256;2023-05-29T02:27:37;93573.47;;;12.79;100.00
41690;BME280;27372;42.658;23.256;2023-05-29T02:30:02;93576.81;;;12.64;100.00
41690;BME280;27372;42.658;23.256;2023-05-29T02:32:28;93573.75;;;12.82;100.00
41690;BME280;27372;42.658;23.256;2023-05-29T02:34:54;93573.75;;;12.82;100.00
41690;BME280;27372;42.658;23.256;2023-05-29T02:37:20;93575.94;;;12.91;100.00
41690;BME280;27372;42.658;23.256;2023-05-29T02:39:45;93583.06;;;12.95;100.00
41690;BME280;27372;42.658;23.256;2023-05-29T02:42:11;93570.44;;;13.02;100.00
41690;BME280;27372;42.658;23.256;2023-05-29T02:44:36;93591.47;;;13.40;100.00
41690;BME280;27372;42.658;23.256;2023-05-29T02:47:03;93587.28;;;13.49;100.00
41690;BME280;27372;42.658;23.256;2023-05-29T02:49:28;93585.22;;;13.62;100.00
41690;BME280;27372;42.658;23.256;2023-05-29T02:51:53;93591.06;;;13.74;100.00
41690;BME280;27372;42.658;23.256;2023-05-29T02:54:23;93588.66;;;13.57;100.00
41690;BME280;27372;42.658;23.256;2023-05-29T02:56:48;93582.59;;;13.67;100.00
41690;BME280;27372;42.658;23.256;2023-05-29T02:59:20;93575.28;;;13.16;100.00
41690;BME280;27372;42.658;23.256;2023-05-29T03:01:46;93581.78;;;12.60;100.00
41690;BME280;27372;42.658;23.256;2023-05-29T03:04:18;93579.22;;;12.70;100.00
41690;BME280;27372;42.658;23.256;2023-05-29T03:06:46;93584.78;;;12.74;100.00
41690;BME280;27372;42.658;23.256;2023-05-29T03:09:12;93584.00;;;12.73;100.00
41690;BME280;27372;42.658;23.256;2023-05-29T03:11:44;93588.38;;;12.63;100.00
41690;BME280;27372;42.658;23.256;2023-05-29T03:14:11;93589.47;;;12.67;100.00
41690;BME280;27372;42.658;23.256;2023-05-29T03:16:36;93593.78;;;12.83;100.00
41690;BME280;27372;42.658;23.256;2023-05-29T03:19:03;93583.06;;;12.95;100.00
41690;BME280;27372;42.658;23.256;2023-05-29T03:21:28;93583.09;;;13.00;100.00
41690;BME280;27372;42.658;23.256;2023-05-29T03:23:54;93582.53;;;12.98;100.00
41690;BME280;27372;42.658;23.256;2023-05-29T03:26:22;93584.72;;;13.07;100.00
41690;BME280;27372;42.658;23.256;2023-05-29T03:28:47;93575.72;;;13.08;100.00
41690;BME280;27372;42.658;23.256;2023-05-29T03:31:13;93579.22;;;13.18;100.00
41690;BME280;27372;42.658;23.256;2023-05-29T03:33:42;93579.53;;;13.27;100.00
41690;BME280;27372;42.658;23.256;2023-05-29T03:36:08;93592.03;;;13.42;100.00
41690;BME280;27372;42.658;23.256;2023-05-29T03:38:36;93599.16;;;13.47;100.00
41690;BME280;27372;42.658;23.256;2023-05-29T03:41:02;93604.72;;;13.50;100.00
41690;BME280;27372;42.658;23.256;2023-05-29T03:43:28;93604.72;;;13.56;100.00
41690;BME280;27372;42.658;23.256;2023-05-29T03:45:53;93607.16;;;13.68;100.00
41690;BME280;27372;42.658;23.256;2023-05-29T03:48:18;93609.53;;;13.74;100.00
41690;BME280;27372;42.658;23.256;2023-05-29T03:50:46;93614.31;;;13.88;100.00
41690;BME280;27372;42.658;23.256;2023-05-29T03:53:13;93619.66;;;14.13;100.00
41690;BME280;27372;42.658;23.256;2023-05-29T03:55:40;93613.59;;;14.23;100.00
41690;BME280;27372;42.658;23.256;2023-05-29T03:58:05;93621.53;;;14.34;100.00
41690;BME280;27372;42.658;23.256;2023-05-29T04:00:31;93620.75;;;14.43;100.00
41690;BME280;27372;42.658;23.256;2023-05-29T04:02:59;93619.94;;;14.53;100.00
41690;BME280;27372;42.658;23.256;2023-05-29T04:05:28;93626.28;;;14.42;100.00
41690;BME280;27372;42.658;23.256;2023-05-29T04:07:56;93629.19;;;14.45;100.00
41690;BME280;27372;42.658;23.256;2023-05-29T04:10:22;93637.66;;;14.48;100.00
41690;BME280;27372;42.658;23.256;2023-05-29T04:12:51;93632.91;;;14.50;100.00
41690;BME280;27372;42.658;23.256;2023-05-29T04:15:17;93633.44;;;14.52;100.00
41690;BME280;27372;42.658;23.256;2023-05-29T04:17:45;93635.28;;;14.46;100.00
41690;BME280;27372;42.658;23.256;2023-05-29T04:20:11;93632.38;;;14.58;100.00
41690;BME280;27372;42.658;23.256;2023-05-29T04:22:40;93638.97;;;14.55;100.00
41690;BME280;27372;42.658;23.256;2023-05-29T04:25:22;93630.78;;;14.57;100.00
41690;BME280;27372;42.658;23.256;2023-05-29T04:28:03;93635.31;;;14.77;100.00
41690;BME280;27372;42.658;23.256;2023-05-29T04:30:28;93632.91;;;14.86;100.00
41690;BME280;27372;42.658;23.256;2023-05-29T04:33:03;93628.94;;;14.83;100.00
41690;BME280;27372;42.658;23.256;2023-05-29T04:35:34;93636.88;;;14.94;100.00
41690;BME280;27372;42.658;23.256;2023-05-29T04:38:00;93642.13;;;15.19;100.00
41690;BME280;27372;42.658;23.256;2023-05-29T04:40:26;93638.13;;;15.27;100.00
41690;BME280;27372;42.658;23.256;2023-05-29T04:42:52;93642.84;;;15.51;100.00
41690;BME280;27372;42.658;23.256;2023-05-29T04:45:19;93642.25;;;15.64;100.00
41690;BME280;27372;42.658;23.256;2023-05-29T04:47:46;93641.16;;;15.76;99.32
41690;BME280;27372;42.658;23.256;2023-05-29T04:53:40;93643.56;;;15.67;99.70
41690;BME280;27372;42.658;23.256;2023-05-29T04:56:06;93643.53;;;15.77;98.96
41690;BME280;27372;42.658;23.256;2023-05-29T04:58:38;93640.34;;;15.91;98.37
41690;BME280;27372;42.658;23.256;2023-05-29T05:01:12;93649.53;;;16.04;97.56
41690;BME280;27372;42.658;23.256;2023-05-29T05:03:42;93656.38;;;16.10;97.17
41690;BME280;27372;42.658;23.256;2023-05-29T05:06:08;93673.56;;;16.18;97.55
41690;BME280;27372;42.658;23.256;2023-05-29T05:08:34;93670.19;;;16.07;96.65
41690;BME280;27372;42.658;23.256;2023-05-29T05:11:00;93683.19;;;15.98;97.59
41690;BME280;27372;42.658;23.256;2023-05-29T05:13:26;93682.38;;;16.03;98.13
41690;BME280;27372;42.658;23.256;2023-05-29T05:15:52;93689.25;;;15.98;98.91
41690;BME280;27372;42.658;23.256;2023-05-29T05:18:21;93687.69;;;15.97;98.02
41690;BME280;27372;42.658;23.256;2023-05-29T05:20:46;93682.38;;;15.97;98.27
41690;BME280;27372;42.658;23.256;2023-05-29T05:23:14;93690.47;;;16.27;97.46
41690;BME280;27372;42.658;23.256;2023-05-29T05:25:40;93683.28;;;16.33;96.61
41690;BME280;27372;42.658;23.256;2023-05-29T05:28:05;93685.28;;;16.51;95.75
41690;BME280;27372;42.658;23.256;2023-05-29T05:30:32;93696.03;;;16.65;96.18
41690;BME280;27372;42.658;23.256;2023-05-29T05:32:58;93693.69;;;16.58;94.98
41690;BME280;27372;42.658;23.256;2023-05-29T05:35:24;93683.16;;;16.53;95.26
41690;BME280;27372;42.658;23.256;2023-05-29T05:37:49;93687.47;;;16.79;94.09
41690;BME280;27372;42.658;23.256;2023-05-29T05:40:21;93688.44;;;16.93;92.71
41690;BME280;27372;42.658;23.256;2023-05-29T05:42:48;93694.69;;;17.07;92.70
41690;BME280;27372;42.658;23.256;2023-05-29T05:45:13;93683.41;;;16.97;91.91
41690;BME280;27372;42.658;23.256;2023-05-29T05:47:38;93699.66;;;17.19;92.86
41690;BME280;27372;42.658;23.256;2023-05-29T05:50:04;93699.59;;;17.25;91.56
41690;BME280;27372;42.658;23.256;2023-05-29T05:52:30;93684.75;;;17.23;92.23
41690;BME280;27372;42.658;23.256;2023-05-29T05:54:57;93685.19;;;17.31;92.23
41690;BME280;27372;42.658;23.256;2023-05-29T05:57:25;93696.75;;;17.45;90.30
41690;BME280;27372;42.658;23.256;2023-05-29T05:59:51;93692.84;;;17.62;90.51
41690;BME280;27372;42.658;23.256;2023-05-29T06:02:17;93691.88;;;17.52;89.10
41690;BME280;27372;42.658;23.256;2023-05-29T06:04:45;93699.44;;;17.40;89.01
41690;BME280;27372;42.658;23.256;2023-05-29T06:07:13;93690.41;;;17.41;89.08
41690;BME280;27372;42.658;23.256;2023-05-29T06:09:41;93698.13;;;17.37;89.69
41690;BME280;27372;42.658;23.256;2023-05-29T06:12:07;93692.47;;;17.49;89.36
41690;BME280;27372;42.658;23.256;2023-05-29T06:14:33;93693.88;;;17.66;88.20
41690;BME280;27372;42.658;23.256;2023-05-29T06:17:00;93691.22;;;17.42;88.90
41690;BME280;27372;42.658;23.256;2023-05-29T06:19:26;93690.19;;;17.62;87.99
41690;BME280;27372;42.658;23.256;2023-05-29T06:21:52;93704.22;;;17.67;87.39
41690;BME280;27372;42.658;23.256;2023-05-29T06:24:19;93699.41;;;17.69;87.38
41690;BME280;27372;42.658;23.256;2023-05-29T06:26:44;93705.38;;;17.56;88.69
41690;BME280;27372;42.658;23.256;2023-05-29T06:29:10;93702.09;;;17.40;89.81
41690;BME280;27372;42.658;23.256;2023-05-29T06:31:35;93704.91;;;17.54;89.02
41690;BME280;27372;42.658;23.256;2023-05-29T06:34:03;93700.47;;;17.68;87.87
41690;BME280;27372;42.658;23.256;2023-05-29T06:36:30;93704.06;;;17.59;88.08
41690;BME280;27372;42.658;23.256;2023-05-29T06:38:57;93713.06;;;17.33;88.69
41690;BME280;27372;42.658;23.256;2023-05-29T06:41:23;93701.84;;;17.42;89.13
41690;BME280;27372;42.658;23.256;2023-05-29T06:43:48;93705.56;;;17.41;88.90
41690;BME280;27372;42.658;23.256;2023-05-29T06:46:15;93712.03;;;17.29;88.69
41690;BME280;27372;42.658;23.256;2023-05-29T07:25:22;93717.28;;;20.81;80.70
41690;BME280;27372;42.658;23.256;2023-05-29T07:27:51;93712.63;;;21.09;89.17
41690;BME280;27372;42.658;23.256;2023-05-29T07:30:23;93716.16;;;20.96;85.77
41690;BME280;27372;42.658;23.256;2023-05-29T07:33:14;93697.47;;;20.96;86.82
41690;BME280;27372;42.658;23.256;2023-05-29T07:42:02;93709.06;;;20.77;84.69
41690;BME280;27372;42.658;23.256;2023-05-29T07:44:28;93710.56;;;20.69;83.21
41690;BME280;27372;42.658;23.256;2023-05-29T07:46:53;93710.25;;;20.85;73.37
41690;BME280;27372;42.658;23.256;2023-05-29T07:49:22;93711.69;;;20.91;71.84
41690;BME280;27372;42.658;23.256;2023-05-29T07:51:47;93711.22;;;20.52;73.51
41690;BME280;27372;42.658;23.256;2023-05-29T07:54:12;93711.75;;;20.63;70.82
41690;BME280;27372;42.658;23.256;2023-05-29T07:57:03;93716.53;;;20.52;70.27
41690;BME280;27372;42.658;23.256;2023-05-29T07:59:34;93713.81;;;20.29;70.95
41690;BME280;27372;42.658;23.256;2023-05-29T08:02:03;93699.13;;;20.55;70.55
41690;BME280;27372;42.658;23.256;2023-05-29T08:04:29;93717.94;;;20.86;69.15
41690;BME280;27372;42.658;23.256;2023-05-29T08:06:55;93703.94;;;20.67;69.00
41690;BME280;27372;42.658;23.256;2023-05-29T08:09:27;93705.38;;;20.50;70.78
41690;BME280;27372;42.658;23.256;2023-05-29T08:11:52;93712.56;;;21.00;68.91
41690;BME280;27372;42.658;23.256;2023-05-29T08:14:18;93717.28;;;20.67;68.50
41690;BME280;27372;42.658;23.256;2023-05-29T08:16:43;93706.59;;;20.44;69.80
41690;BME280;27372;42.658;23.256;2023-05-29T08:19:09;93704.41;;;20.32;71.17
41690;BME280;27372;42.658;23.256;2023-05-29T08:21:37;93712.34;;;20.23;71.54
41690;BME280;27372;42.658;23.256;2023-05-29T08:24:03;93724.53;;;20.52;69.48
41690;BME280;27372;42.658;23.256;2023-05-29T08:26:32;93716.81;;;20.78;68.47
41690;BME280;27372;42.658;23.256;2023-05-29T08:28:58;93723.66;;;20.93;67.07
41690;BME280;27372;42.658;23.256;2023-05-29T08:31:23;93723.47;;;20.90;69.40
41690;BME280;27372;42.658;23.256;2023-05-29T08:33:50;93719.81;;;20.86;68.33
41690;BME280;27372;42.658;23.256;2023-05-29T08:36:20;93722.34;;;20.68;71.13
41690;BME280;27372;42.658;23.256;2023-05-29T08:38:49;93722.69;;;20.89;69.09
41690;BME280;27372;42.658;23.256;2023-05-29T08:41:21;93724.50;;;21.03;70.95
41690;BME280;27372;42.658;23.256;2023-05-29T08:43:52;93727.44;;;21.15;68.17
41690;BME280;27372;42.658;23.256;2023-05-29T08:46:20;93724.09;;;21.09;68.25
41690;BME280;27372;42.658;23.256;2023-05-29T08:48:49;93719.59;;;21.41;67.84
41690;BME280;27372;42.658;23.256;2023-05-29T08:51:19;93716.78;;;21.78;66.03
41690;BME280;27372;42.658;23.256;2023-05-29T08:53:46;93713.38;;;21.86;64.82
41690;BME280;27372;42.658;23.256;2023-05-29T08:56:11;93715.13;;;21.60;66.24
41690;BME280;27372;42.658;23.256;2023-05-29T08:58:37;93710.84;;;21.50;65.09
41690;BME280;27372;42.658;23.256;2023-05-29T09:01:03;93709.91;;;21.54;65.15
41690;BME280;27372;42.658;23.256;2023-05-29T09:03:29;93712.47;;;21.60;64.70
41690;BME280;27372;42.658;23.256;2023-05-29T09:05:58;93709.09;;;21.77;63.21
41690;BME280;27372;42.658;23.256;2023-05-29T09:08:28;93704.03;;;22.15;63.15
41690;BME280;27372;42.658;23.256;2023-05-29T09:10:57;93704.13;;;22.51;62.55
41690;BME280;27372;42.658;23.256;2023-05-29T09:13:26;93690.38;;;22.26;61.68
41690;BME280;27372;42.658;23.256;2023-05-29T09:15:59;93695.91;;;21.57;63.13
41690;BME280;27372;42.658;23.256;2023-05-29T09:18:31;93692.00;;;21.86;63.68
41690;BME280;27372;42.658;23.256;2023-05-29T09:20:58;93695.25;;;21.75;63.82
41690;BME280;27372;42.658;23.256;2023-05-29T09:23:28;93687.91;;;21.57;64.89
41690;BME280;27372;42.658;23.256;2023-05-29T09:25:54;93695.34;;;21.38;66.06
41690;BME280;27372;42.658;23.256;2023-05-29T09:28:21;93681.88;;;21.66;64.34
41690;BME280;27372;42.658;23.256;2023-05-29T09:30:54;93678.13;;;21.76;61.67
41690;BME280;27372;42.658;23.256;2023-05-29T09:33:21;93684.69;;;22.10;59.79
41690;BME280;27372;42.658;23.256;2023-05-29T09:35:48;93671.09;;;22.46;56.35
41690;BME280;27372;42.658;23.256;2023-05-29T09:38:19;93668.91;;;22.66;55.21
41690;BME280;27372;42.658;23.256;2023-05-29T09:40:45;93665.41;;;23.09;56.37
41690;BME280;27372;42.658;23.256;2023-05-29T09:43:12;93664.59;;;23.26;54.11
41690;BME280;27372;42.658;23.256;2023-05-29T09:45:43;93649.00;;;23.02;53.01
41690;BME280;27372;42.658;23.256;2023-05-29T09:48:17;93647.47;;;22.92;54.44
41690;BME280;27372;42.658;23.256;2023-05-29T09:50:47;93652.03;;;22.48;56.72
41690;BME280;27372;42.658;23.256;2023-05-29T09:55:43;93638.41;;;21.92;58.56
41690;BME280;27372;42.658;23.256;2023-05-29T09:58:13;93641.28;;;22.39;57.32
41690;BME280;27372;42.658;23.256;2023-05-29T10:00:42;93637.22;;;22.33;56.97
41690;BME280;27372;42.658;23.256;2023-05-29T10:03:11;93641.28;;;22.39;57.73
41690;BME280;27372;42.658;23.256;2023-05-29T10:05:40;93653.28;;;23.03;55.75
41690;BME280;27372;42.658;23.256;2023-05-29T10:08:12;93642.09;;;24.05;53.00
41690;BME280;27372;42.658;23.256;2023-05-29T10:10:44;93644.63;;;24.74;48.46
41690;BME280;27372;42.658;23.256;2023-05-29T10:13:16;93645.47;;;25.66;44.56
41690;BME280;27372;42.658;23.256;2023-05-29T10:15:45;93634.81;;;25.45;45.47
41690;BME280;27372;42.658;23.256;2023-05-29T10:18:34;93638.41;;;24.40;48.23
41690;BME280;27372;42.658;23.256;2023-05-29T10:21:02;93646.50;;;24.10;49.19
41690;BME280;27372;42.658;23.256;2023-05-29T10:23:28;93631.53;;;23.61;50.20
41690;BME280;27372;42.658;23.256;2023-05-29T10:26:08;93646.31;;;23.29;51.94
41690;BME280;27372;42.658;23.256;2023-05-29T10:28:37;93638.81;;;22.87;54.50
41690;BME280;27372;42.658;23.256;2023-05-29T10:31:17;93628.38;;;23.20;53.95
41690;BME280;27372;42.658;23.256;2023-05-29T10:36:30;93638.16;;;23.07;53.55
41690;BME280;27372;42.658;23.256;2023-05-29T10:39:01;93635.63;;;23.11;52.35
41690;BME280;27372;42.658;23.256;2023-05-29T10:41:31;93623.31;;;23.75;50.62
41690;BME280;27372;42.658;23.256;2023-05-29T10:44:02;93621.69;;;23.44;50.56
41690;BME280;27372;42.658;23.256;2023-05-29T10:49:21;93623.69;;;22.64;50.79
41690;BME280;27372;42.658;23.256;2023-05-29T10:51:48;93628.59;;;22.89;51.25
41690;BME280;27372;42.658;23.256;2023-05-29T10:54:14;93615.63;;;23.00;51.28
41690;BME280;27372;42.658;23.256;2023-05-29T10:56:40;93610.88;;;23.70;49.90
41690;BME280;27372;42.658;23.256;2023-05-29T10:59:19;93598.59;;;24.63;47.81
41690;BME280;27372;42.658;23.256;2023-05-29T11:01:44;93601.75;;;24.65;49.14
41690;BME280;27372;42.658;23.256;2023-05-29T11:04:30;93604.94;;;23.86;46.90
41690;BME280;27372;42.658;23.256;2023-05-29T11:06:57;93605.59;;;23.83;47.03
41690;BME280;27372;42.658;23.256;2023-05-29T11:09:26;93596.56;;;23.57;48.15
41690;BME280;27372;42.658;23.256;2023-05-29T11:15:09;93601.59;;;23.20;50.67
41690;BME280;27372;42.658;23.256;2023-05-29T11:20:23;93589.25;;;22.28;54.72
41690;BME280;27372;42.658;23.256;2023-05-29T11:25:24;93597.94;;;20.50;62.00
41690;BME280;27372;42.658;23.256;2023-05-29T11:27:50;93584.41;;;20.91;62.71
41690;BME280;27372;42.658;23.256;2023-05-29T11:30:18;93575.72;;;21.17;60.74
41690;BME280;27372;42.658;23.256;2023-05-29T11:32:45;93595.72;;;21.60;60.35
41690;BME280;27372;42.658;23.256;2023-05-29T11:35:12;93584.16;;;21.42;60.62
41690;BME280;27372;42.658;23.256;2023-05-29T11:37:39;93598.31;;;20.66;61.45
41690;BME280;27372;42.658;23.256;2023-05-29T11:40:10;93576.03;;;20.39;63.76
41690;BME280;27372;42.658;23.256;2023-05-29T11:42:44;93576.31;;;21.95;57.35
41690;BME280;27372;42.658;23.256;2023-05-29T11:45:13;93587.81;;;22.39;56.05
41690;BME280;27372;42.658;23.256;2023-05-29T11:47:56;93581.69;;;22.21;55.63
41690;BME280;27372;42.658;23.256;2023-05-29T11:50:27;93574.28;;;22.00;54.60
41690;BME280;27372;42.658;23.256;2023-05-29T11:52:53;93590.34;;;22.62;55.75
41690;BME280;27372;42.658;23.256;2023-05-29T11:55:19;93578.81;;;22.88;53.48
41690;BME280;27372;42.658;23.256;2023-05-29T11:57:45;93572.22;;;24.65;49.32
41690;BME280;27372;42.658;23.256;2023-05-29T12:00:34;93575.47;;;26.12;43.15
41690;BME280;27372;42.658;23.256;2023-05-29T12:03:02;93570.84;;;27.26;41.53
41690;BME280;27372;42.658;23.256;2023-05-29T12:05:30;93554.34;;;27.44;40.13
41690;BME280;27372;42.658;23.256;2023-05-29T12:07:59;93549.16;;;26.34;40.76
41690;BME280;27372;42.658;23.256;2023-05-29T12:10:29;93549.91;;;25.32;42.94
41690;BME280;27372;42.658;23.256;2023-05-29T12:12:59;93560.50;;;24.48;46.65
41690;BME280;27372;42.658;23.256;2023-05-29T12:15:26;93557.13;;;24.39;49.03
41690;BME280;27372;42.658;23.256;2023-05-29T12:17:53;93562.91;;;23.48;51.74
41690;BME280;27372;42.658;23.256;2023-05-29T12:20:22;93573.44;;;21.82;61.17
41690;BME280;27372;42.658;23.256;2023-05-29T12:22:48;93557.31;;;20.75;67.58
41690;BME280;27372;42.658;23.256;2023-05-29T12:25:21;93566.31;;;19.69;73.51
41690;BME280;27372;42.658;23.256;2023-05-29T12:27:50;93575.81;;;19.20;77.00
41690;BME280;27372;42.658;23.256;2023-05-29T12:32:48;93598.69;;;19.21;77.39
41690;BME280;27372;42.658;23.256;2023-05-29T12:35:16;93606.47;;;19.31;79.00
41690;BME280;27372;42.658;23.256;2023-05-29T12:40:19;93587.63;;;19.69;81.47
41690;BME280;27372;42.658;23.256;2023-05-29T12:42:54;93598.28;;;19.69;82.62
41690;BME280;27372;42.658;23.256;2023-05-29T12:45:24;93609.44;;;19.58;84.21
41690;BME280;27372;42.658;23.256;2023-05-29T12:47:54;93616.31;;;19.45;89.53
41690;BME280;27372;42.658;23.256;2023-05-29T12:50:29;93618.47;;;19.15;88.93
41690;BME280;27372;42.658;23.256;2023-05-29T12:55:27;93615.72;;;19.06;87.86
41690;BME280;27372;42.658;23.256;2023-05-29T12:57:53;93617.88;;;19.18;88.98
41690;BME280;27372;42.658;23.256;2023-05-29T13:00:23;93608.16;;;18.94;91.24
41690;BME280;27372;42.658;23.256;2023-05-29T13:02:49;93611.09;;;19.12;92.11
41690;BME280;27372;42.658;23.256;2023-05-29T13:05:15;93617.00;;;19.22;90.89
41690;BME280;27372;42.658;23.256;2023-05-29T13:07:46;93616.69;;;19.24;90.02
41690;BME280;27372;42.658;23.256;2023-05-29T13:10:14;93618.56;;;19.09;91.37
41690;BME280;27372;42.658;23.256;2023-05-29T13:12:43;93626.38;;;18.87;91.74
41690;BME280;27372;42.658;23.256;2023-05-29T13:15:11;93611.69;;;19.50;88.02
41690;BME280;27372;42.658;23.256;2023-05-29T13:17:40;93614.75;;;19.99;83.91
41690;BME280;27372;42.658;23.256;2023-05-29T13:20:10;93613.94;;;20.13;83.79
41690;BME280;27372;42.658;23.256;2023-05-29T13:22:40;93619.13;;;20.55;79.04
41690;BME280;27372;42.658;23.256;2023-05-29T13:25:10;93616.03;;;20.61;77.95
41690;BME280;27372;42.658;23.256;2023-05-29T13:27:38;93614.72;;;20.96;75.64
41690;BME280;27372;42.658;23.256;2023-05-29T13:30:04;93622.19;;;21.88;70.95
41690;BME280;27372;42.658;23.256;2023-05-29T13:32:30;93615.31;;;23.10;64.11
41690;BME280;27372;42.658;23.256;2023-05-29T13:34:55;93606.31;;;24.22;61.41
41690;BME280;27372;42.658;23.256;2023-05-29T13:37:21;93609.38;;;25.42;59.59
41690;BME280;27372;42.658;23.256;2023-05-29T13:39:46;93613.44;;;25.03;57.91
41690;BME280;27372;42.658;23.256;2023-05-29T13:42:12;93602.22;;;24.25;57.54
41690;BME280;27372;42.658;23.256;2023-05-29T13:44:40;93607.97;;;24.35;56.98
41690;BME280;27372;42.658;23.256;2023-05-29T13:47:06;93606.00;;;23.25;60.23
41690;BME280;27372;42.658;23.256;2023-05-29T13:49:35;93605.78;;;22.65;62.27
41690;BME280;27372;42.658;23.256;2023-05-29T13:52:02;93592.22;;;22.35;63.96
41690;BME280;27372;42.658;23.256;2023-05-29T13:54:27;93596.47;;;22.80;64.25
41690;BME280;27372;42.658;23.256;2023-05-29T13:56:56;93589.69;;;22.21;65.84
41690;BME280;27372;42.658;23.256;2023-05-29T13:59:22;93593.63;;;20.85;69.98
41690;BME280;27372;42.658;23.256;2023-05-29T14:01:47;93593.00;;;20.43;73.29
41690;BME280;27372;42.658;23.256;2023-05-29T14:04:13;93590.31;;;20.66;68.96
41690;BME280;27372;42.658;23.256;2023-05-29T14:06:38;93593.38;;;20.73;70.17
41690;BME280;27372;42.658;23.256;2023-05-29T14:09:03;93594.69;;;20.61;70.77
41690;BME280;27372;42.658;23.256;2023-05-29T14:11:29;93585.97;;;20.47;71.57
41690;BME280;27372;42.658;23.256;2023-05-29T14:13:54;93578.44;;;20.04;71.64